Terminal Aerodrome Forecast
Issued by NWS Sterling, VA

Current Version | Previous Version | Graphics & Text | Print | Product List | Glossary On
Versions: 1 2 3 4 5 6 7 8 9 10 11 12 13 14 15
000
FTUS41 KLWX 271700
TAFMRB
TAF
KMRB 271737Z 2718/2818 23008KT P6SM BKN050 BKN130
     FM272000 22008KT P6SM VCTS BKN050CB BKN130
     FM280000 18008KT 5SM TSRA BKN050CB BKN130
     FM280300 26009KT P6SM BKN050 BKN130
     FM280900 26008KT P6SM FEW050 SCT130
     FM281300 28013KT P6SM SCT050
     FM281400 28015KT P6SM BKN050=

USA.gov is the U.S. government's official web portal to all federal, state and local government web resources and services.